Time;durP1;ratioP1;P1;durP2;ratioP2;P2;SDS_P1;SDS_P2;PMS_P1;PMS_P2;Temp;Humidity;BMP_temperature;BMP_pressure;BME280_temperature;BME280_humidity;BME280_pressure;Samples;Min_cycle;Max_cycle;Signal;HPM_P1;HPM_P2
2022/09/24 00:01:11;;;;;;;;;13.33;12.00;;;;;18.40;50.53;100833.03;5122196;27;46336;-70
2022/09/24 00:03:38;;;;;;;;;12.67;11.67;;;;;18.40;50.68;100822.25;5121403;27;45804;-69
2022/09/24 00:06:05;;;;;;;;;11.67;10.67;;;;;17.80;50.71;100729.38;5124566;27;45546;-70
2022/09/24 00:08:31;;;;;;;;;10.33;10.33;;;;;18.34;51.05;100830.28;5123299;27;45498;-76
2022/09/24 00:11:01;;;;;;;;;10.00;9.00;;;;;18.30;51.05;100824.44;5119241;27;46418;-68
2022/09/24 00:13:26;;;;;;;;;11.33;10.33;;;;;18.09;51.07;100792.16;5120145;27;45501;-69
2022/09/24 00:15:52;;;;;;;;;13.00;11.00;;;;;18.21;51.23;100818.34;5120154;27;45522;-67
2022/09/24 00:18:18;;;;;;;;;12.67;10.00;;;;;18.19;51.80;100816.88;5121582;27;45626;-68
2022/09/24 00:20:43;;;;;;;;;13.00;11.67;;;;;17.92;51.47;100768.19;5120008;27;45637;-69
2022/09/24 00:23:10;;;;;;;;;11.33;10.67;;;;;18.18;51.58;100801.75;5116011;27;45422;-68
2022/09/24 00:28:30;;;;;;;;;12.33;10.33;;;;;18.22;51.81;100819.22;5119829;27;45466;-68
2022/09/24 00:30:57;;;;;;;;;9.00;9.00;;;;;18.04;51.97;100789.22;5119844;27;46679;-69
2022/09/24 00:33:24;;;;;;;;;14.33;11.33;;;;;18.15;52.18;100816.44;5119889;27;45345;-68
2022/09/24 00:35:50;;;;;;;;;13.00;13.00;;;;;18.17;52.11;100824.31;5118561;27;45284;-69
2022/09/24 00:38:16;;;;;;;;;15.67;14.67;;;;;18.13;52.73;100809.56;5120206;27;45308;-71
2022/09/24 00:40:41;;;;;;;;;13.00;11.67;;;;;18.12;52.66;100813.28;5119885;27;46419;-69
2022/09/24 00:43:24;;;;;;;;;13.67;10.33;;;;;18.16;52.08;100819.94;5119826;27;45475;-70
2022/09/24 00:45:54;;;;;;;;;13.33;11.33;;;;;18.12;52.57;100807.91;5114429;27;45397;-68
2022/09/24 00:48:19;;;;;;;;;16.33;12.33;;;;;18.15;52.48;100802.16;5136002;27;45394;-69
2022/09/24 00:50:45;;;;;;;;;12.33;11.33;;;;;18.15;52.53;100808.34;5119738;27;46173;-69
2022/09/24 00:53:14;;;;;;;;;11.00;10.00;;;;;18.15;52.45;100810.22;5119707;27;45440;-67
2022/09/24 00:55:43;;;;;;;;;10.67;9.00;;;;;18.11;52.73;100795.50;5118709;27;45692;-69
2022/09/24 00:58:09;;;;;;;;;12.33;12.33;;;;;18.17;52.52;100810.84;5119931;27;45478;-70
2022/09/24 01:00:37;;;;;;;;;9.67;9.67;;;;;18.14;52.60;100811.25;5119450;27;46536;-69
2022/09/24 01:03:10;;;;;;;;;12.00;10.33;;;;;18.02;52.67;100788.53;5119648;27;45432;-69
2022/09/24 01:05:37;;;;;;;;;13.33;11.00;;;;;18.11;53.06;100808.94;5119608;27;45551;-70
2022/09/24 01:08:04;;;;;;;;;10.33;8.67;;;;;18.11;53.06;100806.25;5135673;27;45230;-70
2022/09/24 01:10:50;;;;;;;;;11.33;9.33;;;;;18.06;52.93;100789.84;5119265;27;45375;-69
2022/09/24 01:13:27;;;;;;;;;12.00;11.67;;;;;18.10;52.83;100804.59;5119469;27;45499;-69
2022/09/24 01:16:10;;;;;;;;;15.67;12.67;;;;;18.05;52.48;100782.81;5119839;27;45308;-69
2022/09/24 01:19:23;;;;;;;;;10.33;9.33;;;;;18.16;52.52;100799.25;5119486;27;45306;-68
2022/09/24 01:21:49;;;;;;;;;11.33;10.67;;;;;18.20;52.50;100799.69;5103151;27;46747;-68
2022/09/24 01:24:23;;;;;;;;;12.67;11.33;;;;;18.20;53.10;100802.41;5117800;27;45425;-67
2022/09/24 01:27:20;;;;;;;;;12.00;11.00;;;;;18.20;53.69;100797.00;5118365;27;45243;-69
2022/09/24 01:30:01;;;;;;;;;12.33;11.33;;;;;18.12;53.93;100791.78;5102588;27;45750;-69
2022/09/24 01:32:36;;;;;;;;;16.67;15.33;;;;;18.16;55.29;100790.34;5119263;27;46644;-70
2022/09/24 01:35:17;;;;;;;;;11.67;10.33;;;;;18.14;55.05;100793.25;5116065;27;45438;-68
2022/09/24 01:37:50;;;;;;;;;17.00;14.67;;;;;18.10;55.66;100783.06;5117815;27;45401;-68
2022/09/24 01:40:19;;;;;;;;;13.00;11.67;;;;;17.93;55.95;100750.19;5152827;27;45451;-69
2022/09/24 01:42:45;;;;;;;;;13.00;12.00;;;;;18.13;56.04;100783.50;5118947;27;45823;-70
2022/09/24 01:45:11;;;;;;;;;15.33;12.00;;;;;18.10;56.24;100775.00;5118757;27;45590;-70
2022/09/24 01:47:39;;;;;;;;;15.33;13.33;;;;;18.10;56.61;100785.75;5119112;27;45229;-71
2022/09/24 01:50:15;;;;;;;;;19.00;13.33;;;;;18.08;57.26;100780.56;5119188;27;45476;-71
2022/09/24 01:52:50;;;;;;;;;14.00;12.67;;;;;18.05;57.99;100778.25;5134680;27;47539;-72
2022/09/24 01:55:19;;;;;;;;;10.67;10.67;;;;;18.08;58.13;100780.56;5118780;27;45301;-70
2022/09/24 01:57:49;;;;;;;;;11.33;11.33;;;;;18.05;58.36;100770.19;5117214;27;45495;-70
2022/09/24 02:00:17;;;;;;;;;14.33;11.67;;;;;18.03;58.36;100774.94;5119174;27;45226;-70
2022/09/24 02:02:53;;;;;;;;;15.33;13.67;;;;;18.05;58.69;100778.25;5100026;27;45966;-71
2022/09/24 02:05:33;;;;;;;;;14.00;12.00;;;;;17.94;58.55;100757.22;5098416;27;45450;-69
2022/09/24 02:08:07;;;;;;;;;15.33;15.00;;;;;18.03;58.88;100764.16;5098237;27;45296;-71
2022/09/24 02:10:39;;;;;;;;;18.67;17.00;;;;;17.99;59.07;100760.19;5098760;27;45236;-70
2022/09/24 02:13:12;;;;;;;;;20.67;13.33;;;;;17.94;59.32;100752.69;5097644;27;45745;-70
2022/09/24 02:15:40;;;;;;;;;11.67;11.67;;;;;17.88;59.17;100744.56;5097940;27;45431;-70
2022/09/24 02:18:10;;;;;;;;;17.67;15.33;;;;;17.97;59.67;100756.00;5097798;27;45482;-70
2022/09/24 02:20:38;;;;;;;;;13.67;12.67;;;;;17.32;60.22;100664.53;5079650;27;45625;-72
2022/09/24 02:23:05;;;;;;;;;12.00;12.00;;;;;17.84;60.19;100752.19;5097544;27;45679;-71
2022/09/24 02:25:56;;;;;;;;;14.00;14.00;;;;;17.58;59.86;100715.03;5097994;27;45403;-70
2022/09/24 02:28:22;;;;;;;;;13.00;13.00;;;;;17.79;59.78;100735.78;5089674;27;45377;-70
2022/09/24 02:30:52;;;;;;;;;15.00;12.33;;;;;17.66;61.25;100730.25;5097994;27;45270;-70
2022/09/24 02:36:06;;;;;;;;;13.67;13.00;;;;;17.04;62.21;100636.72;5097152;27;45330;-71
2022/09/24 02:38:32;;;;;;;;;15.33;15.33;;;;;17.62;62.35;100728.97;5098114;27;45388;-69
2022/09/24 02:40:57;;;;;;;;;13.67;12.00;;;;;17.68;61.92;100741.66;5098153;27;45362;-70
2022/09/24 02:43:23;;;;;;;;;19.33;17.00;;;;;17.69;61.69;100731.75;5097302;27;45470;-69
2022/09/24 02:45:48;;;;;;;;;14.67;14.67;;;;;17.68;61.55;100724.69;5097473;27;45537;-69
2022/09/24 02:48:13;;;;;;;;;11.00;11.00;;;;;17.71;61.14;100737.75;5097011;27;45709;-69
2022/09/24 02:50:39;;;;;;;;;16.00;15.33;;;;;17.60;61.82;100720.22;5079504;27;45475;-69
2022/09/24 02:53:04;;;;;;;;;15.67;13.33;;;;;17.34;62.69;100688.53;5097105;27;50283;-69
2022/09/24 02:55:29;;;;;;;;;17.00;14.33;;;;;17.34;62.24;100694.72;5095984;27;45385;-70
2022/09/24 02:57:55;;;;;;;;;13.33;12.33;;;;;16.97;62.58;100635.78;5097911;27;45273;-69
2022/09/24 03:00:20;;;;;;;;;18.00;14.00;;;;;17.52;63.01;100731.09;5097567;27;45476;-70
2022/09/24 03:02:49;;;;;;;;;4.00;4.00;;;;;17.51;62.82;100729.44;5096855;27;45599;-68
2022/09/24 03:05:17;;;;;;;;;15.33;15.33;;;;;17.49;62.64;100726.13;5097571;27;45369;-73
2022/09/24 03:07:43;;;;;;;;;13.67;13.33;;;;;17.38;62.41;100710.47;5089737;27;45521;-69
2022/09/24 03:10:10;;;;;;;;;20.67;17.33;;;;;17.27;62.92;100695.69;5097600;27;45517;-70
2022/09/24 03:12:35;;;;;;;;;17.33;14.67;;;;;17.49;63.08;100724.25;5097284;27;45869;-72
2022/09/24 03:15:01;;;;;;;;;21.00;17.00;;;;;17.46;62.95;100713.88;5078888;27;46052;-69
2022/09/24 03:17:27;;;;;;;;;20.67;19.00;;;;;17.07;63.33;100643.56;5078524;27;45472;-68
2022/09/24 03:19:53;;;;;;;;;13.33;11.00;;;;;17.45;63.41;100709.53;5097321;27;45475;-70
2022/09/24 03:22:18;;;;;;;;;12.33;12.33;;;;;17.47;63.05;100717.41;5078534;27;46815;-70
2022/09/24 03:24:44;;;;;;;;;16.67;15.00;;;;;17.43;63.18;100705.38;5096707;27;45300;-70
2022/09/24 03:27:09;;;;;;;;;11.67;9.33;;;;;17.48;63.04;100716.38;5096993;27;45253;-69
2022/09/24 03:32:19;;;;;;;;;10.00;10.00;;;;;17.51;62.65;100716.00;5096701;27;45477;-71
2022/09/24 03:34:44;;;;;;;;;12.00;10.67;;;;;17.54;62.24;100715.63;5096556;27;45481;-69
2022/09/24 03:37:09;;;;;;;;;10.67;9.67;;;;;17.51;62.36;100708.78;5078628;27;45219;-69
2022/09/24 03:39:35;;;;;;;;;17.00;13.33;;;;;17.46;62.11;100699.63;5097012;27;45576;-70
2022/09/24 03:42:00;;;;;;;;;12.33;10.67;;;;;17.29;62.22;100675.66;5096276;27;58393;-70
2022/09/24 03:44:26;;;;;;;;;15.67;14.33;;;;;17.50;62.18;100700.91;5096539;27;45389;-70
2022/09/24 03:46:51;;;;;;;;;16.00;16.00;;;;;17.52;61.99;100706.91;5078311;27;45459;-71
2022/09/24 03:49:16;;;;;;;;;14.67;14.67;;;;;17.43;62.14;100679.34;5096720;27;45505;-71
2022/09/24 03:51:42;;;;;;;;;8.33;6.67;;;;;16.88;62.15;100593.97;5096808;27;45808;-70
2022/09/24 03:54:07;;;;;;;;;11.33;9.67;;;;;17.56;61.24;100705.50;5096661;27;45391;-70
2022/09/24 03:56:32;;;;;;;;;11.67;10.00;;;;;17.48;61.07;100682.28;5078513;27;45789;-69
2022/09/24 03:58:58;;;;;;;;;13.67;10.67;;;;;17.41;60.74;100669.78;5096272;27;45621;-70
2022/09/24 04:01:23;;;;;;;;;10.67;10.00;;;;;17.54;61.09;100691.44;5098046;27;53362;-67
2022/09/24 04:03:49;;;;;;;;;12.00;10.33;;;;;17.51;61.02;100691.81;5098747;27;45427;-70
2022/09/24 04:06:15;;;;;;;;;24.33;20.67;;;;;17.50;61.11;100684.78;5100068;27;45485;-68
2022/09/24 04:08:40;;;;;;;;;14.33;11.67;;;;;17.39;61.09;100669.13;5081553;27;45577;-69
2022/09/24 04:11:06;;;;;;;;;16.33;11.33;;;;;17.49;60.71;100683.94;5099647;27;45966;-67
2022/09/24 04:13:31;;;;;;;;;14.33;13.00;;;;;17.51;60.65;100698.00;5099941;27;45253;-69
2022/09/24 04:16:01;;;;;;;;;11.33;11.33;;;;;17.39;60.91;100675.34;5100038;27;45407;-69
2022/09/24 04:18:26;;;;;;;;;11.67;10.33;;;;;17.52;61.16;100688.09;5081438;27;45529;-68
2022/09/24 04:20:57;;;;;;;;;12.00;9.33;;;;;17.44;61.32;100678.31;5080479;27;63664;-69
2022/09/24 04:23:22;;;;;;;;;13.33;13.33;;;;;17.46;60.77;100683.50;5099546;27;45557;-70
2022/09/24 04:25:47;;;;;;;;;10.67;10.67;;;;;17.55;60.61;100693.91;5099882;27;45453;-69
2022/09/24 04:28:13;;;;;;;;;10.67;10.33;;;;;17.39;60.96;100666.44;5098691;27;45488;-69
2022/09/24 04:30:38;;;;;;;;;15.67;12.67;;;;;17.51;60.74;100697.19;5099683;27;45418;-69
2022/09/24 04:33:04;;;;;;;;;11.00;10.67;;;;;17.57;60.46;100694.56;5099429;27;45173;-70
2022/09/24 04:35:32;;;;;;;;;15.33;11.00;;;;;17.58;60.60;100703.47;5080979;27;45418;-69
2022/09/24 04:37:59;;;;;;;;;11.33;9.33;;;;;17.11;60.40;100624.19;5081230;27;45542;-67
2022/09/24 04:40:25;;;;;;;;;16.33;13.67;;;;;17.58;60.43;100706.16;5115209;27;48084;-69
2022/09/24 04:42:51;;;;;;;;;14.33;12.00;;;;;17.56;60.37;100700.13;5099628;27;45399;-72
2022/09/24 04:45:18;;;;;;;;;12.00;10.67;;;;;17.47;60.79;100685.16;5099149;27;45207;-70
2022/09/24 04:47:43;;;;;;;;;12.33;9.67;;;;;17.56;60.54;100700.13;5099583;27;45211;-70
2022/09/24 04:50:10;;;;;;;;;16.67;14.00;;;;;17.43;61.04;100681.19;5098984;27;46040;-69
2022/09/24 04:52:36;;;;;;;;;11.33;10.00;;;;;17.45;60.87;100684.50;5098442;27;45622;-70
2022/09/24 04:55:02;;;;;;;;;11.67;11.67;;;;;17.50;60.71;100695.53;5098803;27;45305;-69
2022/09/24 04:57:28;;;;;;;;;12.67;12.67;;;;;17.51;60.42;100695.31;5099113;27;45422;-71
2022/09/24 04:59:54;;;;;;;;;12.33;12.00;;;;;17.38;60.96;100667.47;5098813;27;46199;-72
2022/09/24 05:02:20;;;;;;;;;11.00;11.00;;;;;17.27;60.72;100658.06;5114018;27;45271;-71
2022/09/24 05:04:46;;;;;;;;;15.33;14.00;;;;;17.38;60.98;100678.22;5119915;27;45294;-72
2022/09/24 05:07:11;;;;;;;;;11.33;11.33;;;;;17.45;60.82;100697.97;5120008;27;45405;-72
2022/09/24 05:09:36;;;;;;;;;10.67;10.67;;;;;17.46;60.31;100700.44;5119650;27;47269;-70
2022/09/24 05:12:03;;;;;;;;;11.33;10.00;;;;;17.40;60.38;100697.66;5118758;27;45430;-70
2022/09/24 05:14:31;;;;;;;;;15.33;11.33;;;;;17.42;60.50;100709.06;5135525;27;45493;-70
2022/09/24 05:16:57;;;;;;;;;11.67;10.67;;;;;16.88;60.63;100620.81;5119701;27;45545;-72
2022/09/24 05:19:22;;;;;;;;;14.33;12.67;;;;;17.37;60.90;100709.63;5117879;27;46363;-69
2022/09/24 05:21:48;;;;;;;;;6.67;5.33;;;;;17.23;60.97;100687.16;5135247;27;45401;-71
2022/09/24 05:24:14;;;;;;;;;13.33;11.33;;;;;17.27;61.10;100704.56;5117782;27;45599;-71
2022/09/24 05:29:23;;;;;;;;;13.33;13.33;;;;;17.02;62.04;100682.56;5118591;27;45731;-71
2022/09/24 05:31:49;;;;;;;;;14.00;11.00;;;;;17.25;61.79;100725.44;5117591;27;45503;-70
2022/09/24 05:34:14;;;;;;;;;8.67;8.67;;;;;17.23;61.72;100716.72;5118745;27;45401;-69
2022/09/24 05:36:42;;;;;;;;;10.00;9.33;;;;;17.05;61.44;100697.47;5118106;27;45366;-71
2022/09/24 05:39:12;;;;;;;;;13.33;11.33;;;;;17.18;61.60;100721.81;5118944;27;45951;-72
2022/09/24 05:41:38;;;;;;;;;10.67;10.00;;;;;17.03;61.01;100696.84;5119079;27;45268;-72
2022/09/24 05:44:03;;;;;;;;;12.33;10.33;;;;;17.00;61.39;100705.25;5117384;27;45533;-74
2022/09/24 05:46:29;;;;;;;;;11.33;10.33;;;;;16.84;61.46;100690.19;5119166;27;45535;-70
2022/09/24 05:48:55;;;;;;;;;11.33;11.33;;;;;16.79;61.76;100681.00;5118830;27;45601;-72
2022/09/24 05:51:20;;;;;;;;;10.33;9.67;;;;;17.11;61.98;100728.97;5134778;27;45335;-72
2022/09/24 05:53:45;;;;;;;;;14.67;14.67;;;;;16.85;62.02;100674.91;5119694;27;45386;-71
2022/09/24 05:56:11;;;;;;;;;17.67;16.67;;;;;17.11;61.91;100712.00;5119415;27;45475;-72
2022/09/24 05:58:36;;;;;;;;;15.00;10.67;;;;;17.17;61.13;100722.81;5118025;27;48366;-73
2022/09/24 06:01:01;;;;;;;;;12.33;10.67;;;;;17.21;61.36;100721.41;5114775;27;45473;-70
2022/09/24 06:03:28;;;;;;;;;11.33;8.33;;;;;16.98;60.96;100692.00;5098433;27;45517;-72
2022/09/24 06:05:55;;;;;;;;;16.67;13.00;;;;;17.07;60.90;100706.19;5098905;27;45485;-71
2022/09/24 06:08:21;;;;;;;;;14.67;11.33;;;;;17.27;61.00;100734.13;5098813;27;47027;-72
2022/09/24 06:10:47;;;;;;;;;16.33;12.67;;;;;17.29;61.39;100729.41;5097935;27;45381;-73
2022/09/24 06:13:16;;;;;;;;;18.00;13.00;;;;;17.34;61.09;100735.03;5097387;27;45382;-71
2022/09/24 06:15:42;;;;;;;;;12.33;11.33;;;;;17.29;61.46;100736.63;5096069;27;45438;-71
2022/09/24 06:18:09;;;;;;;;;12.33;10.67;;;;;17.27;61.77;100739.50;5097135;27;45757;-70
2022/09/24 06:20:35;;;;;;;;;7.67;7.67;;;;;17.24;61.58;100745.25;5078294;27;45380;-72
2022/09/24 06:23:01;;;;;;;;;11.33;10.33;;;;;16.80;61.95;100677.28;5096887;27;45107;-69
2022/09/24 06:25:27;;;;;;;;;9.33;8.33;;;;;17.21;61.96;100750.97;5097879;27;45396;-70
2022/09/24 06:28:00;;;;;;;;;10.67;8.67;;;;;17.11;62.25;100742.38;5097687;27;46659;-71
2022/09/24 06:30:32;;;;;;;;;12.33;12.00;;;;;17.20;62.50;100761.91;5097152;27;46167;-72
2022/09/24 06:33:09;;;;;;;;;10.67;9.67;;;;;17.19;62.59;100755.72;5098017;27;45277;-72
2022/09/24 06:35:36;;;;;;;;;11.00;8.67;;;;;17.20;62.80;100761.91;5095919;27;45333;-72
2022/09/24 06:38:05;;;;;;;;;12.00;11.00;;;;;17.06;63.16;100733.22;5097531;27;45375;-71
2022/09/24 06:40:31;;;;;;;;;11.00;7.33;;;;;17.25;62.87;100757.66;5097509;27;45543;-70
2022/09/24 06:42:57;;;;;;;;;12.00;9.67;;;;;17.27;63.31;100765.53;5094646;27;45511;-72
2022/09/24 06:45:24;;;;;;;;;12.00;11.33;;;;;17.13;63.33;100751.09;5097335;27;45370;-72
2022/09/24 06:47:59;;;;;;;;;11.33;9.33;;;;;17.20;62.41;100753.84;5078610;27;47718;-72
2022/09/24 06:50:28;;;;;;;;;10.33;8.33;;;;;17.28;62.65;100762.66;5097931;27;45394;-73
2022/09/24 06:52:55;;;;;;;;;10.33;8.67;;;;;17.29;62.59;100772.38;5097814;27;45411;-72
2022/09/24 06:55:21;;;;;;;;;8.33;8.33;;;;;17.30;62.03;100749.03;5079314;27;45461;-76
2022/09/24 06:57:46;;;;;;;;;8.00;8.00;;;;;17.32;62.24;100749.69;5097147;27;45512;-73
2022/09/24 07:00:13;;;;;;;;;10.00;9.00;;;;;17.28;61.84;100735.78;5097191;27;45303;-75
2022/09/24 07:02:39;;;;;;;;;17.00;16.00;;;;;17.56;61.81;100770.84;5115249;27;45304;-73
2022/09/24 07:05:06;;;;;;;;;7.67;7.67;;;;;17.00;61.71;100676.53;5116500;27;45890;-74
2022/09/24 07:07:32;;;;;;;;;12.33;10.00;;;;;17.47;62.03;100746.97;5099298;27;47729;-74
2022/09/24 07:10:06;;;;;;;;;9.67;9.67;;;;;17.15;61.80;100698.00;5116629;27;46168;-73
2022/09/24 07:12:34;;;;;;;;;10.33;9.00;;;;;17.55;61.86;100762.97;5118166;27;45477;-73
2022/09/24 07:15:00;;;;;;;;;11.00;10.00;;;;;17.47;62.02;100755.88;5118759;27;45307;-73
2022/09/24 07:17:26;;;;;;;;;11.33;10.00;;;;;17.55;61.95;100773.72;5099191;27;47826;-73
2022/09/24 07:19:52;;;;;;;;;9.00;7.67;;;;;17.44;62.09;100763.47;5117804;27;45230;-72
2022/09/24 07:22:18;;;;;;;;;10.00;10.00;;;;;17.39;62.28;100752.44;5099590;27;45284;-74
2022/09/24 07:24:44;;;;;;;;;11.00;8.67;;;;;17.57;62.21;100779.75;5099631;27;45291;-74
2022/09/24 07:27:10;;;;;;;;;9.67;9.67;;;;;17.22;61.88;100735.69;5117637;27;45645;-72
2022/09/24 07:29:35;;;;;;;;;12.33;11.33;;;;;17.48;62.18;100762.91;5099333;27;46022;-74
2022/09/24 07:32:02;;;;;;;;;11.33;10.33;;;;;17.55;62.65;100773.72;5117741;27;45550;-73
2022/09/24 07:34:27;;;;;;;;;8.67;8.00;;;;;17.51;62.12;100767.06;5099790;27;45398;-72
2022/09/24 07:36:54;;;;;;;;;16.33;15.67;;;;;17.56;62.07;100775.41;5120591;27;46835;-71
2022/09/24 07:39:20;;;;;;;;;10.33;10.33;;;;;17.71;62.20;100791.53;5120851;27;45327;-74
2022/09/24 07:41:46;;;;;;;;;11.33;11.33;;;;;17.18;61.58;100700.31;5121227;27;45368;-73
2022/09/24 07:44:11;;;;;;;;;7.67;7.67;;;;;17.68;62.00;100779.31;5102994;27;45471;-72
2022/09/24 07:46:36;;;;;;;;;12.00;12.00;;;;;17.32;62.22;100717.44;5120738;27;46276;-75
2022/09/24 07:49:02;;;;;;;;;11.67;11.00;;;;;17.52;62.48;100749.91;5103118;27;45878;-73
2022/09/24 07:51:28;;;;;;;;;11.00;11.00;;;;;17.75;62.47;100788.28;5122593;27;45374;-75
2022/09/24 07:53:57;;;;;;;;;16.67;12.67;;;;;17.30;62.31;100717.63;5121297;27;45276;-71
2022/09/24 07:56:23;;;;;;;;;9.00;9.00;;;;;17.80;62.45;100793.91;5114871;27;45694;-70
2022/09/24 07:58:49;;;;;;;;;16.67;8.67;;;;;17.87;62.24;100808.28;5120349;27;45519;-69
2022/09/24 08:01:16;;;;;;;;;10.67;10.67;;;;;17.27;62.28;100704.56;5121113;27;45440;-71
2022/09/24 08:03:45;;;;;;;;;11.67;10.67;;;;;17.24;62.19;100704.94;5123315;27;45584;-76
2022/09/24 08:06:11;;;;;;;;;10.67;9.00;;;;;17.42;62.77;100739.47;5136243;27;47071;-71
2022/09/24 08:08:37;;;;;;;;;14.33;12.00;;;;;17.44;62.50;100737.44;5120570;27;45473;-73
2022/09/24 08:11:08;;;;;;;;;8.33;7.33;;;;;17.84;62.33;100792.53;5120590;27;45338;-70
2022/09/24 08:13:34;;;;;;;;;9.33;8.33;;;;;17.96;61.89;100814.38;5120599;27;45539;-69
2022/09/24 08:16:00;;;;;;;;;10.67;9.67;;;;;17.94;62.01;100813.72;5120224;27;46315;-68
2022/09/24 08:18:27;;;;;;;;;9.67;9.67;;;;;17.97;61.94;100817.88;5135977;27;45410;-70
2022/09/24 08:20:53;;;;;;;;;8.33;8.33;;;;;17.98;61.86;100822.25;5120520;27;45940;-70
2022/09/24 08:23:19;;;;;;;;;12.33;11.33;;;;;17.81;61.48;100782.13;5120938;27;45492;-74
2022/09/24 08:25:47;;;;;;;;;10.33;10.33;;;;;18.01;61.87;100822.69;5120536;27;46365;-71
2022/09/24 08:28:15;;;;;;;;;13.00;11.33;;;;;18.03;61.44;100820.66;5120983;27;45356;-73
2022/09/24 08:30:42;;;;;;;;;10.33;10.33;;;;;18.09;61.19;100822.59;5136250;27;45405;-78
2022/09/24 08:33:09;;;;;;;;;9.33;9.33;;;;;18.12;60.79;100813.28;5122294;27;45591;-74
2022/09/24 08:35:34;;;;;;;;;13.33;11.33;;;;;18.27;60.87;100827.53;5120551;27;46478;-74
2022/09/24 08:38:01;;;;;;;;;11.33;10.33;;;;;18.35;60.51;100831.94;5118725;27;45432;-71
2022/09/24 08:40:30;;;;;;;;;12.33;9.33;;;;;18.42;60.30;100836.38;5113978;27;45495;-72
2022/09/24 08:43:17;;;;;;;;;7.00;7.00;;;;;18.40;59.79;100816.88;5119954;27;45451;-69
2022/09/24 08:48:41;;;;;;;;;10.33;9.00;;;;;18.47;59.95;100828.56;5120191;27;45372;-69
2022/09/24 08:51:12;;;;;;;;;10.00;9.67;;;;;18.47;59.96;100817.78;5119410;27;45485;-69
2022/09/24 08:53:53;;;;;;;;;6.00;6.00;;;;;18.55;60.19;100831.09;5114537;27;45500;-69
2022/09/24 08:56:25;;;;;;;;;11.33;10.33;;;;;18.47;59.64;100816.94;5131570;27;48367;-69
2022/09/24 08:59:04;;;;;;;;;8.00;8.00;;;;;18.62;60.04;100833.00;5099545;27;45300;-70
2022/09/24 09:01:52;;;;;;;;;11.67;10.33;;;;;18.65;60.09;100820.03;5108544;27;45203;-72
2022/09/24 09:04:27;;;;;;;;;11.33;11.00;;;;;18.81;59.45;100829.66;5119559;27;45493;-70
2022/09/24 09:07:19;;;;;;;;;12.00;12.00;;;;;18.87;58.85;100836.16;5122025;27;46242;-73
2022/09/24 09:10:02;;;;;;;;;13.33;13.00;;;;;18.88;58.80;100825.19;5135111;27;45542;-71
2022/09/24 09:12:44;;;;;;;;;9.67;8.67;;;;;18.87;58.87;100828.91;5119555;27;45222;-70
2022/09/24 09:15:16;;;;;;;;;11.33;10.33;;;;;18.68;57.96;100802.66;5117564;27;45443;-73
2022/09/24 09:17:48;;;;;;;;;16.00;15.00;;;;;18.93;58.75;100844.28;5118132;27;47022;-74
2022/09/24 09:20:37;;;;;;;;;10.00;10.00;;;;;18.89;58.94;100834.94;5119116;27;45298;-71
2022/09/24 09:23:13;;;;;;;;;12.33;12.33;;;;;18.36;59.04;100747.47;5118530;27;45469;-71
2022/09/24 09:25:41;;;;;;;;;12.67;8.67;;;;;18.74;59.06;100821.53;5118336;27;45511;-73
2022/09/24 09:28:13;;;;;;;;;6.00;6.00;;;;;18.90;58.92;100841.16;5118448;27;45845;-72
2022/09/24 09:30:55;;;;;;;;;9.67;8.33;;;;;18.78;58.96;100814.72;5117655;27;45489;-73
2022/09/24 09:33:36;;;;;;;;;11.00;11.00;;;;;19.03;59.06;100835.88;5145095;27;45481;-72
2022/09/24 09:36:16;;;;;;;;;17.00;15.67;;;;;19.13;58.59;100841.72;5117022;27;45237;-70
2022/09/24 09:39:21;;;;;;;;;10.00;10.00;;;;;19.12;57.44;100816.63;5118322;27;46601;-71
2022/09/24 09:42:02;;;;;;;;;9.67;9.33;;;;;19.27;57.68;100850.72;5085287;27;45333;-71
2022/09/24 09:44:30;;;;;;;;;10.00;10.00;;;;;19.26;57.18;100840.97;5111617;27;45447;-70
2022/09/24 09:47:31;;;;;;;;;10.00;10.00;;;;;19.26;56.80;100832.91;5118715;27;45387;-72
2022/09/24 09:50:05;;;;;;;;;11.67;10.33;;;;;18.59;57.74;100749.91;5118123;27;46510;-71
2022/09/24 09:52:37;;;;;;;;;10.33;10.33;;;;;19.14;57.87;100849.59;5118931;27;45457;-72
2022/09/24 09:55:04;;;;;;;;;9.00;9.00;;;;;19.17;58.09;100850.25;5118300;27;45552;-74
2022/09/24 09:57:30;;;;;;;;;10.67;10.00;;;;;19.16;58.17;100846.72;5109573;27;45579;-69
2022/09/24 09:59:56;;;;;;;;;10.67;9.00;;;;;18.66;57.52;100764.31;5118062;27;45920;-70
2022/09/24 10:02:32;;;;;;;;;17.00;10.00;;;;;18.69;57.53;100764.75;5116239;27;45853;-71
2022/09/24 10:04:59;;;;;;;;;17.00;13.00;;;;;19.15;57.41;100853.97;5116443;27;45278;-73
2022/09/24 10:07:25;;;;;;;;;12.67;10.33;;;;;19.00;57.38;100815.50;5118142;27;45316;-71
2022/09/24 10:10:15;;;;;;;;;14.33;13.33;;;;;18.66;57.39;100762.47;5116415;27;47268;-72
2022/09/24 10:12:40;;;;;;;;;15.00;13.00;;;;;19.08;57.10;100831.53;5117799;27;45310;-72
2022/09/24 10:15:23;;;;;;;;;12.67;12.67;;;;;19.09;56.41;100848.53;5118010;27;45548;-71
2022/09/24 10:17:52;;;;;;;;;11.67;11.67;;;;;19.03;57.17;100836.69;5118441;27;45594;-72
2022/09/24 10:20:31;;;;;;;;;11.00;10.33;;;;;19.05;56.93;100848.09;5117969;27;46369;-71
2022/09/24 10:23:01;;;;;;;;;13.00;13.00;;;;;18.98;57.11;100841.81;5116840;27;45483;-71
2022/09/24 10:25:29;;;;;;;;;17.33;17.33;;;;;18.84;57.36;100835.53;5118793;27;45271;-71
2022/09/24 10:30:55;;;;;;;;;15.00;12.00;;;;;18.83;57.79;100843.81;5117854;27;45278;-71
2022/09/24 10:33:22;;;;;;;;;14.67;13.67;;;;;18.39;57.07;100766.75;5118167;27;45386;-72
2022/09/24 10:35:47;;;;;;;;;15.67;14.00;;;;;18.87;57.24;100845.06;5118474;27;45278;-72
2022/09/24 10:38:23;;;;;;;;;16.67;16.00;;;;;18.93;57.60;100843.44;5117160;27;45500;-70
2022/09/24 10:40:50;;;;;;;;;17.33;16.00;;;;;18.93;57.15;100849.66;5117888;27;45795;-72
2022/09/24 10:43:21;;;;;;;;;12.33;12.33;;;;;18.94;57.30;100856.72;5117602;27;45260;-73
2022/09/24 10:46:13;;;;;;;;;15.00;14.67;;;;;18.95;57.08;100836.81;5117943;27;45771;-72
2022/09/24 10:49:13;;;;;;;;;18.00;15.67;;;;;19.01;56.62;100829.81;5117809;27;45526;-72
2022/09/24 10:52:01;;;;;;;;;17.67;12.33;;;;;19.24;56.73;100846.56;5100494;27;45738;-72
2022/09/24 10:54:42;;;;;;;;;20.67;18.00;;;;;19.20;56.78;100821.03;5109742;27;46521;-72
2022/09/24 10:57:19;;;;;;;;;16.33;15.67;;;;;19.32;56.33;100841.00;5150963;27;45475;-72
2022/09/24 10:59:53;;;;;;;;;17.33;14.33;;;;;19.34;56.33;100828.16;5117745;27;45389;-72
2022/09/24 11:02:26;;;;;;;;;14.67;13.67;;;;;19.45;55.70;100840.25;5101895;27;46615;-72
2022/09/24 11:04:58;;;;;;;;;19.00;18.00;;;;;19.61;55.92;100852.59;5096329;27;45244;-71
2022/09/24 11:07:38;;;;;;;;;23.67;18.67;;;;;19.52;55.22;100800.66;5078030;27;45242;-70
2022/09/24 11:10:16;;;;;;;;;19.33;15.00;;;;;19.84;55.18;100841.50;5096319;27;45224;-71
2022/09/24 11:12:52;;;;;;;;;29.33;26.00;;;;;19.91;54.91;100831.56;5089126;27;46904;-72
2022/09/24 11:15:50;;;;;;;;;20.67;16.00;;;;;20.03;53.93;100840.72;5096032;27;45542;-71
2022/09/24 11:18:45;;;;;;;;;19.00;16.33;;;;;20.11;53.98;100845.94;5077826;27;45431;-72
2022/09/24 11:21:44;;;;;;;;;22.00;15.00;;;;;20.18;53.91;100844.06;5079237;27;45426;-71
2022/09/24 11:24:40;;;;;;;;;21.00;19.00;;;;;20.21;53.48;100842.81;5093176;27;47308;-72
2022/09/24 11:27:53;;;;;;;;;22.00;18.33;;;;;20.21;53.39;100843.66;5091972;27;45461;-70
2022/09/24 11:30:21;;;;;;;;;19.67;19.67;;;;;20.23;52.51;100841.63;5079809;27;45535;-72
2022/09/24 11:33:11;;;;;;;;;19.33;16.33;;;;;20.21;52.46;100830.16;5096436;27;45409;-71
2022/09/24 11:36:13;;;;;;;;;17.67;17.67;;;;;20.26;52.11;100837.66;5096242;27;45205;-73
2022/09/24 11:38:56;;;;;;;;;16.67;15.33;;;;;20.38;52.41;100837.88;5077867;27;45352;-72
2022/09/24 11:41:43;;;;;;;;;20.33;16.67;;;;;20.44;52.16;100839.81;5078353;27;45523;-72
2022/09/24 11:44:21;;;;;;;;;23.00;20.00;;;;;20.51;52.20;100832.53;5091674;27;45481;-71